Time;durP1;ratioP1;P1;durP2;ratioP2;P2;SDS_P1;SDS_P2;PMS_P1;PMS_P2;Temp;Humidity;BMP_temperature;BMP_pressure;BME280_temperature;BME280_humidity;BME280_pressure;Samples;Min_cycle;Max_cycle;Signal;HPM_P1;HPM_P2
2022/01/08 00:01:19;;;;;;;5.88;3.22;;;;;;;;;;5012238;28;20200;-76
2022/01/08 00:03:48;;;;;;;5.75;3.15;;;;;;;;;;4996903;28;20200;-78
2022/01/08 00:06:16;;;;;;;4.65;3.28;;;;;;;;;;4993436;28;20203;-78
2022/01/08 00:08:43;;;;;;;4.50;3.70;;;;;;;;;;4994441;28;20228;-77
2022/01/08 00:11:14;;;;;;;4.95;3.15;;;;;;;;;;5011148;28;20203;-77
2022/01/08 00:13:42;;;;;;;3.30;2.72;;;;;;;;;;5008869;28;20623;-78
2022/01/08 00:16:09;;;;;;;5.22;2.90;;;;;;;;;;5005288;28;20223;-78
2022/01/08 00:18:37;;;;;;;4.38;3.50;;;;;;;;;;4997993;28;20195;-77
2022/01/08 00:21:07;;;;;;;6.82;3.05;;;;;;;;;;4991062;28;20654;-77
2022/01/08 00:23:36;;;;;;;3.90;2.97;;;;;;;;;;4990931;28;21281;-77
2022/01/08 00:26:06;;;;;;;3.40;3.08;;;;;;;;;;4991298;28;20199;-78
2022/01/08 00:28:33;;;;;;;3.22;2.75;;;;;;;;;;5002518;28;20231;-77
2022/01/08 00:31:03;;;;;;;3.72;3.30;;;;;;;;;;5008410;28;20559;-77
2022/01/08 00:33:31;;;;;;;3.88;2.97;;;;;;;;;;5007505;28;20210;-78
2022/01/08 00:35:58;;;;;;;4.75;3.10;;;;;;;;;;4996848;28;20280;-77
2022/01/08 00:38:25;;;;;;;5.00;2.78;;;;;;;;;;4990967;28;20219;-77
2022/01/08 00:40:52;;;;;;;3.13;2.83;;;;;;;;;;4991721;28;20693;-78
2022/01/08 00:43:19;;;;;;;2.95;2.65;;;;;;;;;;4991903;28;20200;-77
2022/01/08 00:45:47;;;;;;;5.65;3.80;;;;;;;;;;4991899;28;20271;-77
2022/01/08 00:48:15;;;;;;;5.47;3.33;;;;;;;;;;5005138;28;20234;-78
2022/01/08 00:50:42;;;;;;;5.38;3.42;;;;;;;;;;5008813;28;20575;-78
2022/01/08 00:53:09;;;;;;;4.43;2.92;;;;;;;;;;5010392;28;20328;-78
2022/01/08 00:55:40;;;;;;;3.90;3.00;;;;;;;;;;5002506;28;20398;-77
2022/01/08 00:58:08;;;;;;;4.85;3.30;;;;;;;;;;4974604;28;20248;-77
2022/01/08 01:00:35;;;;;;;6.38;3.08;;;;;;;;;;4991636;28;20208;-78
2022/01/08 01:03:03;;;;;;;3.35;2.60;;;;;;;;;;4992395;28;20200;-77
2022/01/08 01:05:31;;;;;;;3.53;2.80;;;;;;;;;;4993234;28;20204;-77
2022/01/08 01:07:58;;;;;;;6.57;3.25;;;;;;;;;;4976022;28;20227;-78
2022/01/08 01:10:25;;;;;;;3.00;2.42;;;;;;;;;;5002961;28;20203;-77
2022/01/08 01:12:53;;;;;;;4.05;2.75;;;;;;;;;;5008361;28;20211;-77
2022/01/08 01:15:20;;;;;;;4.40;3.13;;;;;;;;;;5009782;28;20203;-78
2022/01/08 01:17:48;;;;;;;4.45;2.80;;;;;;;;;;5010603;28;20216;-78
2022/01/08 01:20:20;;;;;;;3.47;2.60;;;;;;;;;;5010716;28;20554;-77
2022/01/08 01:22:55;;;;;;;4.95;3.00;;;;;;;;;;5010687;28;20239;-78
2022/01/08 01:25:27;;;;;;;10.40;3.55;;;;;;;;;;5011351;28;20210;-77
2022/01/08 01:28:02;;;;;;;4.38;2.85;;;;;;;;;;5012507;28;20247;-77
2022/01/08 01:30:57;;;;;;;7.07;3.22;;;;;;;;;;5012825;28;20624;-77
2022/01/08 01:41:39;;;;;;;6.25;3.35;;;;;;;;;;5009549;28;20693;-78
2022/01/08 01:49:32;;;;;;;5.93;3.50;;;;;;;;;;4977707;28;20279;-78
2022/01/08 01:52:01;;;;;;;8.00;3.95;;;;;;;;;;4975965;28;20207;-78
2022/01/08 01:54:30;;;;;;;8.80;4.50;;;;;;;;;;4997025;28;20565;-77
2022/01/08 01:56:58;;;;;;;6.90;3.80;;;;;;;;;;5008172;28;20216;-77
2022/01/08 01:59:25;;;;;;;6.82;3.42;;;;;;;;;;5008593;28;20561;-78
2022/01/08 02:01:53;;;;;;;5.78;3.92;;;;;;;;;;5010380;28;20210;-77
2022/01/08 02:04:20;;;;;;;4.78;3.28;;;;;;;;;;4992966;28;20211;-77
2022/01/08 02:06:48;;;;;;;5.45;3.95;;;;;;;;;;4993221;28;20227;-78
2022/01/08 02:09:15;;;;;;;6.85;3.08;;;;;;;;;;4993119;28;20227;-78
2022/01/08 02:11:57;;;;;;;4.93;3.03;;;;;;;;;;5012717;28;20200;-78
2022/01/08 02:14:25;;;;;;;4.25;2.92;;;;;;;;;;4997099;28;20208;-77
2022/01/08 02:16:52;;;;;;;4.70;3.22;;;;;;;;;;5010952;28;20228;-77
2022/01/08 02:19:20;;;;;;;3.83;2.85;;;;;;;;;;5007664;28;20207;-78
2022/01/08 02:21:49;;;;;;;3.97;2.70;;;;;;;;;;5008123;28;20288;-78
2022/01/08 02:24:17;;;;;;;5.07;3.15;;;;;;;;;;5010353;28;20227;-77
2022/01/08 02:26:45;;;;;;;4.85;2.72;;;;;;;;;;5010175;28;20216;-78
2022/01/08 02:29:12;;;;;;;3.15;2.35;;;;;;;;;;5010183;28;20224;-77
2022/01/08 02:31:40;;;;;;;8.57;3.00;;;;;;;;;;5006102;28;20201;-77
2022/01/08 02:34:07;;;;;;;3.67;2.38;;;;;;;;;;4992318;28;20193;-77
2022/01/08 02:36:35;;;;;;;5.28;2.72;;;;;;;;;;4995869;28;20223;-78
2022/01/08 02:39:03;;;;;;;3.47;2.75;;;;;;;;;;4980952;28;20201;-78
2022/01/08 02:41:31;;;;;;;4.82;2.88;;;;;;;;;;5011106;28;20237;-77
2022/01/08 02:43:58;;;;;;;6.78;3.35;;;;;;;;;;5011387;28;20582;-78
2022/01/08 02:46:28;;;;;;;10.05;3.70;;;;;;;;;;5013481;28;20582;-77
2022/01/08 02:48:55;;;;;;;7.72;3.75;;;;;;;;;;4996669;28;20228;-77
2022/01/08 02:51:22;;;;;;;14.48;4.32;;;;;;;;;;4993706;28;20223;-77
2022/01/08 02:53:49;;;;;;;12.02;4.63;;;;;;;;;;4993829;28;20207;-77
2022/01/08 02:56:18;;;;;;;11.32;3.97;;;;;;;;;;5012241;28;20227;-77
2022/01/08 02:58:45;;;;;;;9.18;3.85;;;;;;;;;;5002468;28;20193;-77
2022/01/08 03:01:12;;;;;;;11.52;3.97;;;;;;;;;;4995399;28;20200;-77
2022/01/08 03:03:39;;;;;;;8.32;4.18;;;;;;;;;;5010332;28;20195;-77
2022/01/08 03:06:06;;;;;;;6.95;4.15;;;;;;;;;;5011132;28;20200;-77
2022/01/08 03:08:34;;;;;;;8.50;4.45;;;;;;;;;;5012499;28;20688;-77
2022/01/08 03:11:01;;;;;;;7.15;4.10;;;;;;;;;;4999547;28;20204;-77
2022/01/08 03:13:29;;;;;;;7.18;3.80;;;;;;;;;;4993531;28;20568;-78
2022/01/08 03:15:56;;;;;;;7.50;3.75;;;;;;;;;;4993211;28;20207;-77
2022/01/08 03:18:24;;;;;;;9.10;3.33;;;;;;;;;;4994630;28;20673;-77
2022/01/08 03:21:02;;;;;;;7.93;4.15;;;;;;;;;;4995303;28;20208;-77
2022/01/08 03:23:37;;;;;;;7.70;4.70;;;;;;;;;;4995193;28;20204;-77
2022/01/08 03:26:04;;;;;;;7.30;3.90;;;;;;;;;;4993019;28;20210;-77
2022/01/08 03:28:33;;;;;;;14.73;5.10;;;;;;;;;;5010184;28;20227;-77
2022/01/08 03:31:00;;;;;;;7.63;4.28;;;;;;;;;;5012082;28;20207;-77
2022/01/08 03:33:27;;;;;;;9.23;4.00;;;;;;;;;;5012421;28;20253;-77
2022/01/08 03:35:54;;;;;;;6.30;3.90;;;;;;;;;;5012812;28;20206;-77
2022/01/08 03:38:22;;;;;;;9.95;4.80;;;;;;;;;;5012659;28;20207;-77
2022/01/08 03:40:49;;;;;;;11.07;4.93;;;;;;;;;;5013251;28;20246;-77
2022/01/08 03:43:16;;;;;;;10.05;5.30;;;;;;;;;;5014728;28;20195;-77
2022/01/08 03:45:45;;;;;;;12.95;5.10;;;;;;;;;;5014136;28;20568;-77
2022/01/08 03:48:27;;;;;;;11.60;5.75;;;;;;;;;;5010780;28;20700;-77
2022/01/08 03:50:55;;;;;;;12.43;5.45;;;;;;;;;;5009758;28;20677;-77
2022/01/08 03:53:22;;;;;;;8.75;4.72;;;;;;;;;;4994523;28;20207;-77
2022/01/08 03:55:49;;;;;;;10.23;6.03;;;;;;;;;;5012028;28;20196;-77
2022/01/08 03:58:19;;;;;;;13.20;6.40;;;;;;;;;;5012486;28;20231;-77
2022/01/08 04:00:49;;;;;;;8.30;5.95;;;;;;;;;;5012342;28;20196;-77
2022/01/08 04:03:18;;;;;;;10.13;8.00;;;;;;;;;;4995582;28;20200;-78
2022/01/08 04:05:45;;;;;;;13.85;8.50;;;;;;;;;;5013769;28;20203;-76
2022/01/08 04:08:12;;;;;;;12.93;8.00;;;;;;;;;;5013995;28;20223;-76
2022/01/08 04:10:40;;;;;;;16.15;8.77;;;;;;;;;;5010483;28;20239;-77
2022/01/08 04:13:11;;;;;;;14.50;9.68;;;;;;;;;;5009465;28;20625;-77
2022/01/08 04:15:41;;;;;;;14.23;9.18;;;;;;;;;;5011068;28;20758;-77
2022/01/08 04:18:10;;;;;;;15.02;10.10;;;;;;;;;;5011821;28;20256;-78
2022/01/08 04:20:47;;;;;;;15.90;10.35;;;;;;;;;;5011645;28;20211;-77
2022/01/08 04:23:17;;;;;;;17.25;9.70;;;;;;;;;;5011945;28;20649;-77
2022/01/08 04:25:44;;;;;;;18.92;13.00;;;;;;;;;;5012664;28;20200;-77
2022/01/08 04:28:11;;;;;;;19.73;12.27;;;;;;;;;;5013488;28;20576;-77
2022/01/08 04:30:39;;;;;;;17.42;13.75;;;;;;;;;;5013562;28;20227;-78
2022/01/08 04:33:06;;;;;;;22.05;12.93;;;;;;;;;;5010452;28;20204;-77
2022/01/08 04:35:34;;;;;;;17.23;13.38;;;;;;;;;;5009271;28;20559;-77
2022/01/08 04:38:02;;;;;;;19.27;11.88;;;;;;;;;;5010753;28;20216;-77
2022/01/08 04:40:29;;;;;;;28.25;16.13;;;;;;;;;;5011087;28;20290;-77
2022/01/08 04:42:56;;;;;;;29.90;15.90;;;;;;;;;;5011361;28;20207;-77
2022/01/08 04:45:28;;;;;;;22.48;15.20;;;;;;;;;;5011455;28;20701;-77
2022/01/08 04:47:55;;;;;;;23.58;15.35;;;;;;;;;;5012008;28;20655;-77
2022/01/08 04:50:22;;;;;;;23.65;16.23;;;;;;;;;;5013090;28;20227;-77
2022/01/08 04:52:51;;;;;;;22.63;14.68;;;;;;;;;;5013084;28;20206;-77
2022/01/08 04:55:18;;;;;;;21.65;13.30;;;;;;;;;;5010403;28;20196;-77
2022/01/08 04:57:45;;;;;;;21.25;13.10;;;;;;;;;;4990199;28;20343;-78
2022/01/08 05:00:13;;;;;;;18.73;14.40;;;;;;;;;;4996015;28;20544;-77
2022/01/08 05:02:40;;;;;;;19.30;13.70;;;;;;;;;;4990216;28;20188;-77
2022/01/08 05:05:08;;;;;;;18.92;13.32;;;;;;;;;;5005170;28;20283;-77
2022/01/08 05:07:35;;;;;;;23.13;14.07;;;;;;;;;;5006792;28;20580;-77
2022/01/08 05:10:04;;;;;;;26.98;15.85;;;;;;;;;;5010629;28;20228;-77
2022/01/08 05:12:31;;;;;;;21.17;13.50;;;;;;;;;;4991583;28;20192;-77
2022/01/08 05:15:01;;;;;;;20.92;14.48;;;;;;;;;;5007260;28;20196;-77
2022/01/08 05:17:31;;;;;;;24.85;13.73;;;;;;;;;;4995247;28;20231;-77
2022/01/08 05:20:01;;;;;;;20.92;13.68;;;;;;;;;;4974429;28;20573;-77
2022/01/08 05:22:31;;;;;;;25.65;13.90;;;;;;;;;;4991287;28;20200;-77
2022/01/08 05:24:58;;;;;;;21.10;13.48;;;;;;;;;;4991403;28;20295;-77
2022/01/08 05:27:27;;;;;;;22.10;14.10;;;;;;;;;;4974662;28;20717;-78
2022/01/08 05:29:55;;;;;;;18.58;13.48;;;;;;;;;;4993163;28;20227;-77
2022/01/08 05:32:22;;;;;;;22.95;14.35;;;;;;;;;;4993146;28;20296;-77
2022/01/08 05:34:50;;;;;;;24.15;14.15;;;;;;;;;;5006925;28;20192;-77
2022/01/08 05:37:17;;;;;;;22.20;14.13;;;;;;;;;;5008018;28;20220;-77
2022/01/08 05:39:45;;;;;;;23.08;14.43;;;;;;;;;;5001564;28;20569;-78
2022/01/08 05:42:12;;;;;;;23.35;14.82;;;;;;;;;;4973735;28;20192;-77
2022/01/08 05:44:41;;;;;;;22.83;14.10;;;;;;;;;;4991169;28;20705;-77
2022/01/08 05:47:08;;;;;;;27.50;12.90;;;;;;;;;;4974034;28;20221;-77
2022/01/08 05:49:36;;;;;;;20.08;12.32;;;;;;;;;;5000071;28;20231;-77
2022/01/08 05:52:03;;;;;;;20.67;11.77;;;;;;;;;;5012365;28;20286;-78
2022/01/08 05:54:30;;;;;;;24.42;14.70;;;;;;;;;;5012347;28;20200;-78
2022/01/08 05:56:58;;;;;;;17.00;12.75;;;;;;;;;;5009897;28;20216;-77
2022/01/08 05:59:26;;;;;;;30.17;16.35;;;;;;;;;;5008150;28;20192;-77
2022/01/08 06:01:55;;;;;;;19.33;13.73;;;;;;;;;;5009579;28;20200;-78
2022/01/08 06:04:23;;;;;;;25.95;14.23;;;;;;;;;;4993046;28;20196;-78
2022/01/08 06:06:50;;;;;;;21.25;13.13;;;;;;;;;;5010218;28;20583;-77
2022/01/08 06:09:17;;;;;;;21.05;13.10;;;;;;;;;;5011990;28;20656;-78
2022/01/08 06:11:44;;;;;;;23.05;14.57;;;;;;;;;;5009221;28;20204;-78
2022/01/08 06:14:12;;;;;;;20.13;13.70;;;;;;;;;;4996591;28;20200;-77
2022/01/08 06:16:39;;;;;;;19.77;13.50;;;;;;;;;;4996499;28;20328;-77
2022/01/08 06:19:08;;;;;;;22.13;12.30;;;;;;;;;;5003253;28;20649;-78
2022/01/08 06:21:36;;;;;;;21.17;13.43;;;;;;;;;;5011963;28;20550;-77
2022/01/08 06:24:03;;;;;;;25.23;14.07;;;;;;;;;;5012666;28;20238;-77
2022/01/08 06:26:30;;;;;;;21.35;13.40;;;;;;;;;;5013918;28;20219;-77
2022/01/08 06:28:57;;;;;;;25.52;15.15;;;;;;;;;;5001454;28;20239;-77
2022/01/08 06:31:25;;;;;;;27.48;13.75;;;;;;;;;;4994327;28;20557;-77
2022/01/08 06:33:53;;;;;;;25.05;14.02;;;;;;;;;;4997659;28;20199;-77
2022/01/08 06:36:23;;;;;;;18.55;13.15;;;;;;;;;;4998455;28;20697;-77
2022/01/08 06:38:50;;;;;;;23.67;12.95;;;;;;;;;;5014958;28;20227;-77
2022/01/08 06:41:17;;;;;;;22.83;13.85;;;;;;;;;;5013690;28;20560;-77
2022/01/08 06:43:44;;;;;;;21.48;13.00;;;;;;;;;;5011077;28;20204;-78
2022/01/08 06:46:12;;;;;;;21.75;12.52;;;;;;;;;;5011692;28;20207;-77
2022/01/08 06:48:40;;;;;;;22.67;13.50;;;;;;;;;;4979588;28;20208;-79
2022/01/08 06:51:07;;;;;;;25.08;13.27;;;;;;;;;;4993835;28;20223;-77
2022/01/08 06:53:36;;;;;;;20.77;14.23;;;;;;;;;;4994041;28;20207;-78
2022/01/08 06:56:03;;;;;;;18.88;12.05;;;;;;;;;;4993810;28;20216;-78
2022/01/08 06:58:30;;;;;;;23.38;13.95;;;;;;;;;;4995533;28;20197;-77
2022/01/08 07:00:57;;;;;;;23.35;13.30;;;;;;;;;;4995312;28;20672;-79
2022/01/08 07:03:24;;;;;;;18.40;12.38;;;;;;;;;;4997361;28;20208;-78
2022/01/08 07:05:52;;;;;;;25.40;13.77;;;;;;;;;;5010549;28;20617;-79
2022/01/08 07:08:19;;;;;;;23.50;13.02;;;;;;;;;;5011022;28;20223;-80
2022/01/08 07:10:47;;;;;;;20.45;12.43;;;;;;;;;;5013008;28;20224;-78
2022/01/08 07:13:14;;;;;;;25.00;13.88;;;;;;;;;;5012760;28;20200;-77
2022/01/08 07:15:42;;;;;;;22.83;13.32;;;;;;;;;;5012928;28;20210;-77
2022/01/08 07:18:09;;;;;;;20.30;12.77;;;;;;;;;;5013184;28;20216;-78
2022/01/08 07:20:36;;;;;;;24.55;13.63;;;;;;;;;;5013868;28;20204;-77
2022/01/08 07:23:03;;;;;;;21.30;12.88;;;;;;;;;;5014872;28;20200;-77
2022/01/08 07:25:30;;;;;;;21.85;12.60;;;;;;;;;;5014725;28;20622;-78
2022/01/08 07:27:59;;;;;;;18.83;12.65;;;;;;;;;;5009638;28;20243;-77
2022/01/08 07:30:26;;;;;;;14.15;10.70;;;;;;;;;;5010568;28;20216;-77
2022/01/08 07:32:53;;;;;;;15.63;11.82;;;;;;;;;;5012072;28;20207;-79
2022/01/08 07:35:22;;;;;;;21.63;12.05;;;;;;;;;;5012178;28;20204;-77
2022/01/08 07:37:50;;;;;;;18.00;11.73;;;;;;;;;;4993114;28;20311;-77
2022/01/08 07:40:18;;;;;;;15.77;12.30;;;;;;;;;;4975784;28;20192;-77
2022/01/08 07:42:45;;;;;;;19.05;12.57;;;;;;;;;;4994298;28;20208;-77
2022/01/08 07:45:14;;;;;;;17.95;11.38;;;;;;;;;;5013749;28;20196;-79
2022/01/08 07:47:41;;;;;;;22.52;12.90;;;;;;;;;;5013573;28;20224;-79
2022/01/08 07:50:08;;;;;;;22.55;11.35;;;;;;;;;;5008800;28;20222;-78
2022/01/08 07:52:36;;;;;;;20.63;12.50;;;;;;;;;;5008983;28;20231;-77
2022/01/08 07:55:03;;;;;;;18.08;12.07;;;;;;;;;;4974378;28;20197;-77
2022/01/08 07:57:31;;;;;;;18.33;11.90;;;;;;;;;;4992130;28;20311;-78
2022/01/08 07:59:58;;;;;;;22.80;12.88;;;;;;;;;;4992699;28;20195;-78
2022/01/08 08:02:26;;;;;;;23.70;13.93;;;;;;;;;;4993048;28;20200;-78
2022/01/08 08:04:53;;;;;;;20.80;14.55;;;;;;;;;;5004992;28;20200;-78
2022/01/08 08:07:29;;;;;;;20.75;13.70;;;;;;;;;;5013881;28;20220;-78
2022/01/08 08:09:56;;;;;;;18.48;12.73;;;;;;;;;;4996494;28;20203;-79
2022/01/08 08:12:24;;;;;;;24.45;13.35;;;;;;;;;;5010198;28;20207;-78
2022/01/08 08:14:51;;;;;;;23.42;12.70;;;;;;;;;;5008930;28;20199;-81
2022/01/08 08:17:18;;;;;;;23.70;13.23;;;;;;;;;;5010319;28;20632;-80
2022/01/08 08:19:46;;;;;;;20.02;12.85;;;;;;;;;;5005289;28;20189;-79
2022/01/08 08:22:14;;;;;;;17.40;12.15;;;;;;;;;;4991437;28;20201;-78
2022/01/08 08:24:41;;;;;;;19.48;13.82;;;;;;;;;;4991620;28;20196;-78
2022/01/08 08:27:08;;;;;;;19.15;12.05;;;;;;;;;;4997324;28;20222;-79
2022/01/08 08:29:38;;;;;;;21.63;12.15;;;;;;;;;;5008953;28;20210;-78
2022/01/08 08:32:05;;;;;;;21.23;11.80;;;;;;;;;;5009006;28;20688;-78
2022/01/08 08:34:32;;;;;;;19.70;11.45;;;;;;;;;;5011089;28;20200;-77
2022/01/08 08:37:01;;;;;;;21.33;10.60;;;;;;;;;;5010760;28;20219;-79
2022/01/08 08:39:28;;;;;;;19.52;9.73;;;;;;;;;;4991560;28;20207;-80
2022/01/08 08:41:55;;;;;;;31.23;11.05;;;;;;;;;;4993007;28;20545;-80
2022/01/08 08:44:22;;;;;;;19.75;9.63;;;;;;;;;;5003441;28;20203;-78
2022/01/08 08:46:49;;;;;;;15.73;10.15;;;;;;;;;;4992809;28;20221;-79
2022/01/08 08:49:17;;;;;;;16.35;8.93;;;;;;;;;;4994259;28;20207;-78
2022/01/08 08:51:44;;;;;;;18.70;10.60;;;;;;;;;;5008425;28;20219;-79
2022/01/08 08:54:12;;;;;;;14.38;8.95;;;;;;;;;;5007155;28;20567;-78
2022/01/08 08:56:42;;;;;;;18.55;10.50;;;;;;;;;;4990509;28;20303;-79
2022/01/08 08:59:09;;;;;;;15.50;10.07;;;;;;;;;;4991469;28;20275;-79
2022/01/08 09:01:36;;;;;;;16.40;8.30;;;;;;;;;;4992244;28;20271;-80
2022/01/08 09:04:07;;;;;;;9.98;7.18;;;;;;;;;;4991250;28;20193;-78
2022/01/08 09:06:34;;;;;;;9.98;7.25;;;;;;;;;;4995740;28;20224;-79
2022/01/08 09:09:01;;;;;;;14.10;7.43;;;;;;;;;;5012518;28;20196;-78
2022/01/08 09:11:30;;;;;;;9.40;7.15;;;;;;;;;;5012576;28;20223;-78
2022/01/08 09:13:57;;;;;;;11.68;6.68;;;;;;;;;;5008237;28;20196;-78
2022/01/08 09:16:24;;;;;;;13.38;6.95;;;;;;;;;;5007775;28;20219;-79
2022/01/08 09:18:51;;;;;;;8.05;5.55;;;;;;;;;;4999561;28;20201;-79
2022/01/08 09:21:19;;;;;;;9.63;6.97;;;;;;;;;;4990189;28;20263;-78
2022/01/08 09:23:51;;;;;;;12.43;6.45;;;;;;;;;;4990976;28;20216;-79
2022/01/08 09:26:18;;;;;;;10.23;6.70;;;;;;;;;;4990551;28;20250;-79
2022/01/08 09:28:47;;;;;;;8.45;5.75;;;;;;;;;;4993803;28;20232;-79
2022/01/08 09:31:17;;;;;;;10.55;6.72;;;;;;;;;;5007342;28;20223;-79
2022/01/08 09:33:44;;;;;;;9.30;6.78;;;;;;;;;;5008915;28;20288;-79
2022/01/08 09:36:11;;;;;;;11.25;6.40;;;;;;;;;;5010059;28;20212;-80
2022/01/08 09:38:38;;;;;;;11.15;6.40;;;;;;;;;;5010544;28;20208;-79
2022/01/08 09:41:05;;;;;;;10.65;7.25;;;;;;;;;;5010847;28;20812;-80
2022/01/08 09:43:33;;;;;;;10.27;7.07;;;;;;;;;;5011103;28;20211;-80
2022/01/08 09:46:01;;;;;;;12.77;7.22;;;;;;;;;;5001177;28;20324;-77
2022/01/08 09:48:29;;;;;;;7.03;6.18;;;;;;;;;;5006043;28;20206;-77
2022/01/08 09:50:56;;;;;;;7.90;5.70;;;;;;;;;;5010824;28;20211;-80
2022/01/08 09:53:23;;;;;;;10.05;6.18;;;;;;;;;;5002913;28;20200;-76
2022/01/08 09:55:57;;;;;;;11.80;6.38;;;;;;;;;;4976894;28;20200;-87
2022/01/08 09:58:24;;;;;;;11.82;6.50;;;;;;;;;;5001560;28;20198;-78
2022/01/08 10:00:51;;;;;;;9.35;5.68;;;;;;;;;;4996714;28;20212;-77
2022/01/08 10:03:22;;;;;;;8.32;5.40;;;;;;;;;;4995497;28;20746;-78
2022/01/08 10:05:50;;;;;;;13.15;6.18;;;;;;;;;;5011352;28;20677;-77
2022/01/08 10:08:23;;;;;;;9.02;5.22;;;;;;;;;;4994874;28;20208;-77
2022/01/08 10:10:58;;;;;;;12.10;5.40;;;;;;;;;;5013996;28;20560;-78
2022/01/08 10:13:29;;;;;;;7.10;4.35;;;;;;;;;;5014366;28;20670;-77
2022/01/08 10:18:40;;;;;;;7.30;5.13;;;;;;;;;;4997358;28;20215;-77
2022/01/08 10:21:22;;;;;;;8.43;4.32;;;;;;;;;;4995031;28;20200;-77
2022/01/08 10:23:50;;;;;;;8.13;4.82;;;;;;;;;;4995763;28;20196;-77
2022/01/08 10:41:32;;;;;;;10.63;5.20;;;;;;;;;;4972772;28;20269;-78
2022/01/08 10:44:07;;;;;;;9.85;4.85;;;;;;;;;;4974425;28;20209;-78
2022/01/08 10:46:35;;;;;;;10.60;4.15;;;;;;;;;;4974531;28;20299;-79
2022/01/08 10:49:02;;;;;;;8.60;4.70;;;;;;;;;;4973586;28;20478;-77
2022/01/08 10:51:34;;;;;;;7.03;4.35;;;;;;;;;;4974968;28;20221;-78
2022/01/08 10:54:03;;;;;;;11.18;4.30;;;;;;;;;;4974965;28;20296;-77
2022/01/08 10:56:33;;;;;;;6.13;4.03;;;;;;;;;;4974400;28;20311;-78
2022/01/08 10:59:01;;;;;;;9.40;4.97;;;;;;;;;;4973252;28;20670;-77
2022/01/08 11:01:43;;;;;;;5.57;3.42;;;;;;;;;;4972223;28;20201;-77
2022/01/08 11:04:12;;;;;;;7.20;4.13;;;;;;;;;;4973341;28;20202;-77
2022/01/08 11:06:54;;;;;;;6.30;4.40;;;;;;;;;;4973802;28;20260;-77
2022/01/08 11:09:22;;;;;;;6.15;4.30;;;;;;;;;;4973276;28;20237;-77
2022/01/08 11:11:51;;;;;;;5.00;4.03;;;;;;;;;;4974059;28;20217;-77
2022/01/08 11:14:47;;;;;;;5.32;3.97;;;;;;;;;;4975144;28;20206;-78
2022/01/08 11:17:15;;;;;;;5.32;4.03;;;;;;;;;;4975977;28;20217;-79
2022/01/08 11:19:44;;;;;;;5.32;3.83;;;;;;;;;;4975921;28;20619;-77
2022/01/08 11:22:16;;;;;;;8.40;4.35;;;;;;;;;;4971073;28;20204;-77
2022/01/08 11:24:45;;;;;;;6.13;3.90;;;;;;;;;;4971995;28;20284;-78
2022/01/08 11:27:14;;;;;;;7.50;4.35;;;;;;;;;;4971979;28;20229;-77
2022/01/08 11:29:43;;;;;;;3.92;3.50;;;;;;;;;;4973345;28;20212;-77
2022/01/08 11:32:11;;;;;;;7.60;4.15;;;;;;;;;;4973660;28;20222;-80
2022/01/08 11:34:41;;;;;;;6.28;3.67;;;;;;;;;;4972615;28;20662;-78
2022/01/08 11:37:08;;;;;;;5.63;3.60;;;;;;;;;;4974081;28;20217;-77
2022/01/08 11:39:36;;;;;;;10.57;4.65;;;;;;;;;;4988471;28;20229;-77
2022/01/08 11:42:03;;;;;;;5.20;3.25;;;;;;;;;;4990622;28;20304;-77
2022/01/08 11:44:32;;;;;;;6.05;3.20;;;;;;;;;;4992494;28;20211;-76
2022/01/08 11:47:00;;;;;;;5.13;3.28;;;;;;;;;;4975334;28;20701;-77
2022/01/08 11:49:27;;;;;;;6.55;3.45;;;;;;;;;;4992646;28;20201;-76
2022/01/08 11:52:09;;;;;;;14.15;4.28;;;;;;;;;;4992595;28;20220;-78
2022/01/08 11:54:43;;;;;;;4.95;3.13;;;;;;;;;;4978657;28;20200;-78
2022/01/08 11:57:21;;;;;;;6.10;3.20;;;;;;;;;;4977300;28;20326;-78
2022/01/08 11:59:57;;;;;;;6.72;3.17;;;;;;;;;;4993119;28;20196;-76
2022/01/08 12:02:34;;;;;;;7.25;3.58;;;;;;;;;;4990003;28;20569;-77
2022/01/08 12:05:02;;;;;;;5.43;3.35;;;;;;;;;;4972971;28;20205;-77
2022/01/08 12:07:33;;;;;;;5.03;3.40;;;;;;;;;;4974212;28;20216;-77
2022/01/08 12:10:09;;;;;;;8.27;3.65;;;;;;;;;;4992249;28;20701;-76
2022/01/08 12:12:44;;;;;;;8.25;3.28;;;;;;;;;;4975432;28;20219;-77
2022/01/08 12:15:15;;;;;;;3.67;3.25;;;;;;;;;;4992595;28;20215;-77
2022/01/08 12:17:57;;;;;;;9.80;3.35;;;;;;;;;;4973688;28;20228;-77
2022/01/08 12:20:39;;;;;;;7.15;3.30;;;;;;;;;;4974702;28;20742;-77
2022/01/08 12:23:21;;;;;;;4.35;3.05;;;;;;;;;;4976199;28;20224;-76
2022/01/08 12:25:48;;;;;;;5.70;3.65;;;;;;;;;;4976391;28;20204;-76
2022/01/08 12:28:40;;;;;;;7.65;3.47;;;;;;;;;;4992143;28;20228;-79
2022/01/08 12:31:21;;;;;;;7.95;3.50;;;;;;;;;;4975031;28;20200;-77
2022/01/08 12:34:15;;;;;;;4.78;3.47;;;;;;;;;;4978004;28;20579;-76
2022/01/08 12:36:51;;;;;;;5.15;3.45;;;;;;;;;;4979947;28;20227;-76
2022/01/08 12:39:18;;;;;;;5.90;3.40;;;;;;;;;;4993668;28;20220;-77
2022/01/08 12:41:45;;;;;;;6.68;3.47;;;;;;;;;;4989388;28;20195;-76
2022/01/08 12:44:25;;;;;;;6.70;3.60;;;;;;;;;;4989482;28;20205;-76
2022/01/08 12:46:52;;;;;;;5.80;3.67;;;;;;;;;;4990078;28;20220;-76
2022/01/08 12:49:21;;;;;;;5.15;3.22;;;;;;;;;;4991085;28;20204;-77
2022/01/08 12:52:03;;;;;;;7.72;3.45;;;;;;;;;;4991052;28;20229;-77
2022/01/08 12:54:30;;;;;;;4.25;3.67;;;;;;;;;;4990591;28;20696;-77
2022/01/08 12:57:00;;;;;;;5.47;2.78;;;;;;;;;;4983367;28;20271;-76
2022/01/08 12:59:31;;;;;;;6.22;3.17;;;;;;;;;;4972156;28;20196;-77
2022/01/08 13:01:58;;;;;;;6.28;4.05;;;;;;;;;;4972356;28;20234;-78
2022/01/08 13:04:27;;;;;;;6.63;3.67;;;;;;;;;;4990104;28;20208;-77
2022/01/08 13:06:54;;;;;;;10.43;3.65;;;;;;;;;;4973849;28;20248;-77
2022/01/08 13:09:21;;;;;;;6.30;3.53;;;;;;;;;;4973703;28;20197;-76
2022/01/08 13:11:49;;;;;;;4.45;3.42;;;;;;;;;;4991410;28;20221;-79
2022/01/08 13:14:17;;;;;;;7.50;4.00;;;;;;;;;;4992700;28;20567;-78
2022/01/08 13:16:45;;;;;;;4.70;3.55;;;;;;;;;;4976010;28;20235;-76
2022/01/08 13:19:13;;;;;;;5.43;3.53;;;;;;;;;;4992254;28;20656;-75
2022/01/08 13:21:43;;;;;;;6.60;4.15;;;;;;;;;;4972182;28;20208;-76
2022/01/08 13:24:16;;;;;;;6.07;3.22;;;;;;;;;;4988892;28;20204;-76
2022/01/08 13:26:44;;;;;;;5.00;3.63;;;;;;;;;;4990641;28;20221;-77
2022/01/08 13:29:20;;;;;;;7.55;3.72;;;;;;;;;;4990742;28;20192;-76
2022/01/08 13:31:48;;;;;;;4.78;3.20;;;;;;;;;;4990949;28;20283;-77
2022/01/08 13:34:16;;;;;;;4.53;3.17;;;;;;;;;;4991410;28;20357;-77
2022/01/08 13:36:59;;;;;;;4.82;3.50;;;;;;;;;;4974361;28;20225;-77
2022/01/08 13:39:29;;;;;;;3.38;3.08;;;;;;;;;;4972426;28;20237;-77
2022/01/08 13:42:12;;;;;;;8.38;3.75;;;;;;;;;;4983716;28;20193;-78
2022/01/08 13:44:40;;;;;;;6.43;3.30;;;;;;;;;;4973626;28;20196;-78
2022/01/08 13:47:17;;;;;;;3.97;3.00;;;;;;;;;;4989133;28;20208;-78
2022/01/08 13:49:46;;;;;;;6.35;3.17;;;;;;;;;;4973998;28;20291;-76
2022/01/08 13:52:19;;;;;;;4.63;3.38;;;;;;;;;;4990974;28;20228;-76
2022/01/08 13:54:47;;;;;;;4.72;3.83;;;;;;;;;;4991068;28;20556;-76
2022/01/08 13:57:16;;;;;;;4.03;3.15;;;;;;;;;;4990799;28;20256;-75
2022/01/08 13:59:43;;;;;;;3.53;2.90;;;;;;;;;;4992379;28;20661;-78
2022/01/08 14:02:11;;;;;;;5.15;3.40;;;;;;;;;;4992783;28;20269;-76
2022/01/08 14:04:40;;;;;;;4.88;2.90;;;;;;;;;;4975693;28;20642;-75
2022/01/08 14:07:07;;;;;;;3.20;2.33;;;;;;;;;;4987366;28;20279;-80
2022/01/08 14:09:36;;;;;;;5.25;3.90;;;;;;;;;;4989181;28;20203;-78
2022/01/08 14:12:15;;;;;;;5.38;3.33;;;;;;;;;;4990083;28;20291;-77
2022/01/08 14:14:49;;;;;;;5.00;3.33;;;;;;;;;;4990126;28;20192;-77
2022/01/08 14:17:21;;;;;;;6.38;3.53;;;;;;;;;;4974035;28;20279;-79
2022/01/08 14:19:55;;;;;;;5.25;3.72;;;;;;;;;;4991022;28;20307;-79
2022/01/08 14:22:24;;;;;;;3.72;2.80;;;;;;;;;;4992083;28;20211;-77
2022/01/08 14:24:52;;;;;;;4.70;3.20;;;;;;;;;;4992353;28;20196;-79
2022/01/08 14:27:22;;;;;;;6.35;3.60;;;;;;;;;;4991888;28;20247;-78
2022/01/08 14:30:04;;;;;;;6.32;3.42;;;;;;;;;;4986680;28;20197;-77
2022/01/08 14:32:32;;;;;;;6.40;3.70;;;;;;;;;;4976381;28;20303;-79
2022/01/08 14:35:01;;;;;;;6.65;3.35;;;;;;;;;;4993753;28;20223;-80
2022/01/08 14:37:29;;;;;;;6.65;3.42;;;;;;;;;;4992840;28;20240;-81
2022/01/08 14:39:56;;;;;;;6.20;3.65;;;;;;;;;;4994158;28;20251;-78
2022/01/08 14:42:30;;;;;;;7.53;3.78;;;;;;;;;;4994511;28;20289;-78
2022/01/08 14:44:58;;;;;;;4.97;3.55;;;;;;;;;;4996073;28;20204;-78
2022/01/08 14:47:34;;;;;;;12.02;3.30;;;;;;;;;;4995557;28;20279;-79
2022/01/08 14:50:02;;;;;;;3.95;2.65;;;;;;;;;;4995063;28;20200;-81
2022/01/08 14:52:29;;;;;;;3.97;2.72;;;;;;;;;;4973924;28;20319;-84
2022/01/08 14:54:57;;;;;;;3.78;2.97;;;;;;;;;;4991896;28;20209;-79
2022/01/08 14:57:24;;;;;;;5.07;3.10;;;;;;;;;;4993291;28;20224;-79
2022/01/08 14:59:52;;;;;;;4.22;3.30;;;;;;;;;;4993786;28;20565;-77
2022/01/08 15:02:20;;;;;;;6.55;3.30;;;;;;;;;;4994225;28;20609;-77
2022/01/08 15:04:47;;;;;;;8.38;3.20;;;;;;;;;;4993838;28;20494;-77
2022/01/08 15:07:14;;;;;;;3.55;2.80;;;;;;;;;;4994959;28;20235;-78
2022/01/08 15:09:42;;;;;;;4.88;2.55;;;;;;;;;;4995643;28;20240;-78
2022/01/08 15:12:09;;;;;;;3.70;2.70;;;;;;;;;;4995410;28;20209;-79
2022/01/08 15:14:39;;;;;;;3.28;2.88;;;;;;;;;;4991239;28;20664;-80
2022/01/08 15:17:08;;;;;;;4.30;2.80;;;;;;;;;;4990310;28;20221;-80